Latest Weather Observations for Milingimbi

IDD60801

Issued at 10:05 pm CST Wednesday 20 August 2014 (issued every 30 minutes, with the page automatically refreshed every 10 minutes)

About weather observations | Map of weather stations | Latest weather observations for NT | Other Formats
Station Details ID: 014404 Name: MILINGIMBI AIRPORT Lat: -12.09 Lon: 134.89 Height: 15.0 m
Data from the previous 72 hours. | See also: Recent months at Milingimbi
Date/Time
CST
Temp
°C
App
Temp
°C
Dew
Point
Rel
Hum
%
Delta-T
°C
Wind Press
QNH
hPa
Press
MSL
hPa
Rain
since 9 am
mm
Dir
 
Spd
km/h
Gust
km/h
Spd
kts
Gust
kts
20/10:00pm 21.5 21.5 15.3 68 3.7 ESE 9 13 5 7 1015.2 - 0.0
20/09:30pm 20.6 21.8 16.8 79 2.3 NE 6 9 3 5 1015.0 - 0.0
20/09:00pm 20.5 22.5 15.9 75 2.7 CALM 0 0 0 0 1014.8 1014.7 0.0
20/08:30pm 20.8 22.7 15.8 73 3.0 CALM 0 2 0 1 1014.6 - 0.0
20/08:00pm 21.3 23.3 16.0 72 3.2 CALM 0 0 0 0 1014.2 - 0.0
20/07:30pm 21.6 23.1 15.7 69 3.5 NE 2 6 1 3 1013.7 - 0.0
20/07:00pm 22.9 24.3 15.5 63 4.4 NE 2 7 1 4 1013.2 - 0.0
20/06:30pm 24.0 24.4 15.2 58 5.3 NE 7 13 4 7 1012.8 - 0.0
20/06:00pm 25.1 25.5 15.4 55 5.9 ENE 7 13 4 7 1012.7 1012.6 0.0
20/05:30pm 26.0 25.4 14.5 49 6.9 NE 11 17 6 9 1012.6 - 0.0
20/05:00pm 26.2 26.2 15.3 51 6.6 NNE 9 15 5 8 1012.4 - 0.0
20/04:30pm 27.0 26.7 15.4 49 7.1 NE 11 15 6 8 1012.3 - 0.0
20/04:00pm 27.2 26.6 14.6 46 7.6 NNE 11 20 6 11 1012.4 - 0.0
20/03:30pm 27.3 26.6 14.3 45 7.8 N 11 20 6 11 1012.5 - 0.0
20/03:00pm 28.2 27.3 14.8 44 8.1 NNE 13 20 7 11 1012.7 1012.6 0.0
20/02:30pm 27.3 25.9 13.3 42 8.2 NNE 13 22 7 12 1013.0 - 0.0
20/02:00pm 28.6 26.8 10.8 33 10.1 ENE 11 20 6 11 1013.6 - 0.0
20/01:30pm 27.8 25.3 9.6 32 10.1 ENE 13 19 7 10 1014.0 - 0.0
20/01:00pm 27.5 24.9 9.3 32 10.0 ENE 13 19 7 10 1014.7 - 0.0
20/12:30pm 26.8 24.7 11.3 38 8.8 NE 13 20 7 11 1015.0 - 0.0
20/12:00pm 27.5 24.6 9.8 33 9.8 E 15 22 8 12 1015.6 1015.5 0.0
20/11:30am 26.2 23.6 10.8 38 8.7 E 15 22 8 12 1016.1 - 0.0
20/11:00am 25.7 22.9 9.9 37 8.7 E 15 26 8 14 1016.5 - 0.0
20/10:30am 25.1 21.6 10.2 39 8.3 ESE 19 26 10 14 1016.7 - 0.0
20/10:00am 25.2 22.6 10.6 40 8.1 ESE 15 20 8 11 1016.7 - 0.0
20/09:30am 23.6 21.7 12.9 51 6.2 ESE 15 20 8 11 1016.8 - 0.0
20/09:00am 21.8 20.8 13.4 59 4.8 SE 11 15 6 8 1016.7 1016.6 0.0
20/08:30am 19.5 18.4 13.0 66 3.7 S 11 17 6 9 1016.6 - 0.0
20/08:00am 18.0 17.6 12.9 72 2.9 S 7 13 4 7 1016.5 - 0.0
20/07:30am 15.6 15.2 12.5 82 1.7 S 6 7 3 4 1016.3 - 0.0
20/07:00am 15.2 14.6 12.3 83 1.6 SSW 7 9 4 5 1016.0 - 0.0
20/06:30am 14.9 14.5 12.4 85 1.4 SSW 6 9 3 5 1015.7 - 0.0
20/06:00am 15.1 15.5 12.4 84 1.5 S 2 7 1 4 1015.5 1015.4 0.0
20/05:30am 15.6 16.0 12.5 82 1.7 S 2 7 1 4 1015.2 - 0.0
20/05:00am 16.2 16.0 12.9 81 1.8 SSE 6 7 3 4 1015.0 - 0.0
20/04:30am 16.6 16.2 12.9 79 2.1 SSE 7 9 4 5 1014.9 - 0.0
20/04:00am 17.2 16.8 12.9 76 2.4 SSE 7 7 4 4 1014.9 - 0.0
20/03:30am 18.6 18.0 13.5 72 2.9 SE 9 13 5 7 1014.8 - 0.0
20/03:00am 19.9 18.7 14.0 69 3.4 ESE 13 17 7 9 1014.6 1014.5 0.0
20/02:30am 20.0 18.8 13.9 68 3.5 ESE 13 22 7 12 1014.7 - 0.0
20/02:00am 20.3 18.7 14.0 67 3.6 ESE 15 24 8 13 1014.9 - 0.0
20/01:30am 20.5 18.7 14.4 68 3.6 ESE 17 26 9 14 1015.1 - 0.0
20/01:00am 20.5 18.9 13.9 66 3.8 ESE 15 24 8 13 1015.3 - 0.0
20/12:30am 20.4 19.1 13.6 65 3.9 ESE 13 20 7 11 1015.3 - 0.0
20/12:00am 20.5 19.7 13.9 66 3.8 E 11 19 6 10 1015.6 1015.5 0.0
 
Date/Time
CST
Temp
°C
App
Temp
°C
Dew
Point
Rel
Hum
%
Delta-T
°C
Wind Press
QNH
hPa
Press
MSL
hPa
Rain
since 9 am
mm
Dir
 
Spd
km/h
Gust
km/h
Spd
kts
Gust
kts
19/11:30pm 20.9 18.4 13.6 63 4.2 ESE 19 30 10 16 1015.5 - 0.0
19/11:00pm 21.0 19.2 13.4 62 4.4 ESE 15 24 8 13 1015.4 - 0.0
19/10:30pm 20.6 19.5 11.8 57 4.9 ESE 9 13 5 7 1015.4 - 0.0
19/10:00pm 21.3 19.0 11.9 55 5.3 SE 15 20 8 11 1015.4 - 0.0
19/09:30pm 21.7 20.1 11.7 53 5.6 SE 11 15 6 8 1015.0 - 0.0
19/09:00pm 21.8 21.3 13.9 61 4.6 SE 9 13 5 7 1014.9 1014.8 0.0
19/08:30pm 21.4 22.5 17.0 76 2.7 SE 7 9 4 5 1014.5 - 0.0
19/08:00pm 21.4 22.8 17.4 78 2.5 E 6 9 3 5 1014.1 - 0.0
19/07:30pm 21.4 22.4 16.4 73 3.0 ENE 6 9 3 5 1013.6 - 0.0
19/07:00pm 21.9 22.8 16.0 69 3.6 ENE 6 11 3 6 1013.2 - 0.0
19/06:30pm 22.4 22.6 14.3 60 4.8 NE 6 7 3 4 1013.0 - 0.0
19/06:00pm 24.1 24.8 13.3 51 6.3 NNE 2 7 1 4 1012.8 1012.7 0.0
19/05:30pm 25.2 24.7 12.8 46 7.2 ENE 7 11 4 6 1012.7 - 0.0
19/05:00pm 26.5 25.8 13.3 44 7.8 ENE 9 13 5 7 1012.7 - 0.0
19/04:30pm 27.9 26.5 11.0 35 9.6 ENE 9 13 5 7 1012.7 - 0.0
19/04:00pm 28.8 27.1 10.0 31 10.6 ENE 9 13 5 7 1012.8 - 0.0
19/03:30pm 29.3 27.2 8.4 27 11.5 ESE 9 15 5 8 1012.8 - 0.0
19/03:00pm 29.3 27.1 7.8 26 11.7 ESE 9 15 5 8 1013.1 1013.0 0.0
19/02:30pm 28.6 26.8 9.3 30 10.7 E 9 17 5 9 1013.6 - 0.0
19/02:00pm 28.6 25.9 8.8 29 10.9 ESE 13 24 7 13 1014.3 - 0.0
19/01:30pm 28.3 25.6 9.1 30 10.6 E 13 20 7 11 1014.7 - 0.0
19/01:00pm 26.8 23.7 8.7 32 9.9 E 15 22 8 12 1015.2 - 0.0
19/12:30pm 26.2 22.4 7.7 31 9.9 ENE 17 28 9 15 1015.8 - 0.0
19/12:00pm 25.9 22.1 7.5 31 9.8 E 17 24 9 13 1016.3 1016.2 0.0
19/11:30am 25.9 22.6 9.7 36 8.9 E 17 30 9 16 1016.9 - 0.0
19/11:00am 24.8 21.6 9.9 39 8.2 E 17 26 9 14 1017.4 - 0.0
19/10:30am 24.3 22.0 11.6 45 7.2 E 15 22 8 12 1017.8 - 0.0
19/10:00am 23.4 20.2 9.8 42 7.4 ESE 17 26 9 14 1018.1 - 0.0
19/09:30am 22.4 18.9 10.2 46 6.7 ESE 19 30 10 16 1018.1 - 0.0
19/09:00am 22.9 19.4 8.6 40 7.6 SE 17 26 9 14 1018.1 1018.0 0.0
19/08:30am 20.1 18.0 11.3 57 4.8 SSE 13 19 7 10 1018.0 - 0.0
19/08:00am 18.4 16.6 12.2 67 3.4 SSE 13 19 7 10 1017.8 - 0.0
19/07:30am 17.1 16.0 13.0 77 2.3 SSE 11 17 6 9 1017.4 - 0.0
19/07:00am 15.8 15.4 12.9 83 1.6 SSE 7 11 4 6 1017.1 - 0.0
19/06:30am 16.0 15.3 13.1 83 1.6 SSE 9 11 5 6 1016.6 - 0.0
19/06:00am 16.1 15.6 12.8 81 1.8 SSE 7 9 4 5 1016.2 1016.1 0.0
19/05:30am 16.5 15.7 13.0 80 1.9 SSE 9 11 5 6 1015.9 - 0.0
19/05:00am 16.8 16.1 13.1 79 2.1 SE 9 11 5 6 1015.7 - 0.0
19/04:30am 17.0 16.3 13.1 78 2.2 SSE 9 13 5 7 1015.5 - 0.0
19/04:00am 17.4 16.0 13.3 77 2.3 SSE 13 15 7 8 1015.5 - 0.0
19/03:30am 17.7 16.6 13.2 75 2.5 SSE 11 17 6 9 1015.5 - 0.0
19/03:00am 17.7 16.6 13.2 75 2.5 SSE 11 15 6 8 1015.7 1015.6 0.0
19/02:30am 18.0 17.3 13.3 74 2.7 SSE 9 11 5 6 1015.9 - 0.0
19/02:00am 18.3 17.2 13.2 72 2.9 SE 11 13 6 7 1015.9 - 0.0
19/01:30am 18.8 17.4 13.4 71 3.1 SE 13 17 7 9 1016.0 - 0.0
19/01:00am 19.0 18.1 13.6 71 3.1 SE 11 15 6 8 1016.2 - 0.0
19/12:30am 19.4 18.1 13.8 70 3.2 SSE 13 19 7 10 1016.5 - 0.0
19/12:00am 19.8 18.5 13.7 68 3.5 SE 13 17 7 9 1016.6 1016.5 0.0
 
Date/Time
CST
Temp
°C
App
Temp
°C
Dew
Point
Rel
Hum
%
Delta-T
°C
Wind Press
QNH
hPa
Press
MSL
hPa
Rain
since 9 am
mm
Dir
 
Spd
km/h
Gust
km/h
Spd
kts
Gust
kts
18/11:30pm 20.5 18.9 13.9 66 3.8 SE 15 20 8 11 1016.5 - 0.0
18/11:00pm 20.7 18.9 13.2 62 4.3 SE 15 20 8 11 1016.4 - 0.0
18/10:30pm 21.4 19.0 12.8 58 4.9 SE 17 24 9 13 1016.3 - 0.0
18/10:00pm 22.1 20.0 13.5 58 5.0 SE 17 26 9 14 1016.2 - 0.0
18/09:30pm 22.5 20.7 13.3 56 5.3 ESE 15 20 8 11 1016.1 - 0.0
18/09:00pm 23.3 20.9 13.8 55 5.5 ESE 19 26 10 14 1015.7 1015.6 0.0
18/08:30pm 23.8 22.3 14.2 55 5.7 ESE 15 20 8 11 1015.5 - 0.0
18/08:00pm 22.2 23.3 16.7 71 3.4 ENE 6 11 3 6 1015.0 - 0.0
18/07:30pm 22.5 24.1 16.8 70 3.5 NE 4 7 2 4 1014.7 - 0.0
18/07:00pm 23.1 24.5 16.4 66 4.1 ENE 4 7 2 4 1014.6 - 0.0
18/06:30pm 24.4 25.1 16.1 60 5.1 NE 7 9 4 5 1014.2 - 0.0
18/06:00pm 25.4 25.8 16.3 57 5.6 NE 9 15 5 8 1014.0 1013.9 0.0
18/05:30pm 26.8 26.4 14.2 46 7.5 NE 9 13 5 7 1013.8 - 0.0
18/05:00pm 27.2 26.2 13.5 42 8.1 ENE 11 17 6 9 1013.6 - 0.0
18/04:30pm 27.9 26.4 13.1 40 8.7 ENE 13 20 7 11 1013.4 - 0.0
18/04:00pm 28.4 26.1 11.9 36 9.6 E 15 24 8 13 1013.3 - 0.0
18/03:30pm 29.1 26.6 11.2 33 10.3 E 15 22 8 12 1013.4 - 0.0
18/03:00pm 29.0 26.5 12.4 36 9.7 ESE 17 24 9 13 1013.5 1013.4 0.0
18/02:30pm 28.2 25.0 11.3 35 9.7 E 19 26 10 14 1013.7 - 0.0
18/02:00pm 28.6 26.5 12.5 37 9.4 E 15 26 8 14 1014.1 - 0.0
18/01:30pm 28.0 25.4 12.0 37 9.3 E 17 28 9 15 1014.8 - 0.0
18/01:00pm 27.2 24.6 12.0 38 8.8 E 17 26 9 14 1015.3 - 0.0
18/12:30pm 27.6 24.9 11.6 37 9.2 E 17 32 9 17 1015.8 - 0.0
18/12:00pm 26.7 23.6 11.6 39 8.6 ESE 19 28 10 15 1016.2 1016.1 0.0
18/11:30am 26.1 22.5 11.8 41 8.2 ESE 22 33 12 18 1016.7 - 0.0
18/11:00am 25.8 22.6 13.0 45 7.5 ESE 22 35 12 19 1017.2 - 0.0
18/10:30am 24.3 21.1 11.9 45 7.0 SE 20 30 11 16 1017.4 - 0.0
18/10:00am 23.6 20.5 12.3 49 6.4 SE 20 32 11 17 1017.6 - 0.0
18/09:30am 21.7 17.8 10.8 50 6.0 SSE 22 32 12 17 1017.6 - 0.0
18/09:00am 21.0 17.8 11.1 53 5.4 SE 19 24 10 13 1017.7 1017.6 0.0
18/08:30am 20.3 17.7 10.7 54 5.2 SE 15 22 8 12 1017.6 - 0.0
18/08:00am 18.5 17.6 11.3 63 3.9 SE 7 13 4 7 1017.3 - 0.0
18/07:30am 15.9 15.9 11.3 74 2.5 S 2 7 1 4 1016.8 - 0.0
18/07:00am 14.5 13.8 11.3 81 1.7 S 6 9 3 5 1016.2 - 0.0
18/06:30am 14.8 13.9 11.4 80 1.8 S 7 9 4 5 1015.9 - 0.0
18/06:00am 15.1 14.3 11.7 80 1.8 S 7 9 4 5 1015.6 1015.5 0.0
18/05:30am 15.3 14.4 11.5 78 2.0 S 7 9 4 5 1015.3 - 0.0
18/05:00am 15.9 15.1 11.7 76 2.3 SSE 7 11 4 6 1015.3 - 0.0
18/04:30am 16.4 15.3 11.8 74 2.5 SSE 9 15 5 8 1015.2 - 0.0
18/04:00am 16.5 15.6 11.4 72 2.8 SSE 7 11 4 6 1015.4 - 0.0
18/03:30am 17.0 15.4 11.5 70 3.0 SSE 11 15 6 8 1015.2 - 0.0
18/03:00am 17.2 15.6 11.5 69 3.1 SSE 11 15 6 8 1015.3 1015.2 0.0
18/02:30am 17.7 15.6 11.3 66 3.5 SSE 13 17 7 9 1015.4 - 0.0
18/02:00am 18.1 16.2 11.7 66 3.5 SSE 13 17 7 9 1015.8 - 0.0
18/01:30am 18.3 16.7 11.6 65 3.7 SE 11 15 6 8 1016.1 - 0.0
18/01:00am 18.6 17.3 11.2 62 4.0 SE 9 15 5 8 1016.1 - 0.0
18/12:30am 19.2 16.7 11.0 59 4.5 SE 15 19 8 10 1016.2 - 0.0
18/12:00am 19.6 17.4 10.9 57 4.7 SE 13 17 7 9 1016.5 1016.4 0.0
 
Date/Time
CST
Temp
°C
App
Temp
°C
Dew
Point
Rel
Hum
%
Delta-T
°C
Wind Press
QNH
hPa
Press
MSL
hPa
Rain
since 9 am
mm
Dir
 
Spd
km/h
Gust
km/h
Spd
kts
Gust
kts
17/11:30pm 19.5 17.2 10.5 56 4.9 SE 13 17 7 9 1016.7 - 0.0
17/11:00pm 20.1 17.7 10.2 53 5.3 SE 13 19 7 10 1016.7 - 0.0
17/10:30pm 20.8 17.8 10.6 52 5.6 SE 17 24 9 13 1016.5 - 0.0

Other Formats:

Comma delimited format used in spreadsheet applications
http://www.bom.gov.au/fwo/IDD60801/IDD60801.94140.axf

JavaScript Object Notation format (JSON) in row-major order
http://www.bom.gov.au/fwo/IDD60801/IDD60801.94140.json